Time,TemperatureF,DewpointF,PressureIn,WindDirection,WindDirectionDegrees,WindSpeedMPH,WindSpeedGustMPH,Humidity,HourlyPrecipIn,Conditions,Clouds,dailyrainin,SoftwareType,DateUTC
2013-03-08 00:01:00,34.3,28.2,30.20,East,90,4.7,-999.0,78,-99.99,,,0.00,Acu-Link.com,2013-03-08 05:01:00,
2013-03-08 00:16:00,34.2,28.1,30.20,ENE,67,4.2,-999.0,78,-99.99,,,0.00,Acu-Link.com,2013-03-08 05:16:00,
2013-03-08 00:31:00,34.2,28.1,30.20,ENE,67,3.7,-999.0,78,-99.99,,,0.00,Acu-Link.com,2013-03-08 05:31:00,
2013-03-08 00:46:00,34.2,28.1,30.19,East,90,5.3,-999.0,78,-99.99,,,0.00,Acu-Link.com,2013-03-08 05:46:00,
2013-03-08 01:02:00,34.0,27.9,30.19,NW,315,3.2,-999.0,78,-99.99,,,0.00,Acu-Link.com,2013-03-08 06:02:00,
2013-03-08 01:17:00,33.8,27.7,30.19,ENE,67,5.8,-999.0,78,-99.99,,,0.00,Acu-Link.com,2013-03-08 06:17:00,
2013-03-08 01:32:00,33.8,28.0,30.19,ENE,67,4.7,-999.0,79,-99.99,,,0.00,Acu-Link.com,2013-03-08 06:32:00,
2013-03-08 01:47:00,33.8,28.0,30.20,East,90,3.2,-999.0,79,-99.99,,,0.00,Acu-Link.com,2013-03-08 06:47:00,
2013-03-08 02:02:00,33.4,27.9,30.20,NE,45,2.2,-999.0,80,-99.99,,,0.00,Acu-Link.com,2013-03-08 07:02:00,
2013-03-08 02:17:00,32.9,27.4,30.19,East,90,6.8,-999.0,80,-99.99,,,0.00,Acu-Link.com,2013-03-08 07:17:00,
2013-03-08 02:33:00,32.7,26.9,30.20,ENE,67,3.2,-999.0,79,-99.99,,,0.00,Acu-Link.com,2013-03-08 07:33:00,
2013-03-08 02:48:00,32.7,26.9,30.19,ENE,67,3.2,-999.0,79,-99.99,,,0.00,Acu-Link.com,2013-03-08 07:48:00,
2013-03-08 03:03:00,32.7,26.9,30.20,ENE,67,4.7,-999.0,79,-99.99,,,0.00,Acu-Link.com,2013-03-08 08:03:00,
2013-03-08 03:18:00,32.7,26.9,30.20,NNE,22,4.2,-999.0,79,-99.99,,,0.00,Acu-Link.com,2013-03-08 08:18:00,
2013-03-08 03:33:00,32.5,27.0,30.19,East,90,2.7,-999.0,80,-99.99,,,0.00,Acu-Link.com,2013-03-08 08:33:00,
2013-03-08 03:48:00,32.0,26.8,30.18,East,90,1.1,-999.0,81,-99.99,,,0.00,Acu-Link.com,2013-03-08 08:48:00,
2013-03-08 04:04:00,31.3,26.5,30.19,NNW,337,1.7,-999.0,82,-99.99,,,0.00,Acu-Link.com,2013-03-08 09:04:00,
2013-03-08 04:19:00,30.9,26.4,30.20,NNW,337,1.7,-999.0,83,-99.99,,,0.00,Acu-Link.com,2013-03-08 09:19:00,
2013-03-08 04:34:00,30.0,25.8,30.20,NNW,337,0.0,-999.0,84,-99.99,,,0.00,Acu-Link.com,2013-03-08 09:34:00,
2013-03-08 04:49:00,28.6,25.2,30.20,NNW,337,0.0,-999.0,87,-99.99,,,0.00,Acu-Link.com,2013-03-08 09:49:00,
2013-03-08 05:04:00,28.2,25.4,30.21,NNW,337,0.0,-999.0,89,-99.99,,,0.00,Acu-Link.com,2013-03-08 10:04:00,
2013-03-08 05:19:00,27.1,24.3,30.21,NNW,337,0.0,-999.0,89,-99.99,,,0.00,Acu-Link.com,2013-03-08 10:19:00,
2013-03-08 05:34:00,26.6,24.9,30.21,NNW,337,0.0,-999.0,93,-99.99,,,0.00,Acu-Link.com,2013-03-08 10:34:00,
2013-03-08 05:50:00,26.8,24.8,30.23,NNW,337,0.0,-999.0,92,-99.99,,,0.00,Acu-Link.com,2013-03-08 10:50:00,
2013-03-08 06:05:00,26.6,24.6,30.22,NNW,337,0.0,-999.0,92,-99.99,,,0.00,Acu-Link.com,2013-03-08 11:05:00,
2013-03-08 06:20:00,27.1,25.1,30.22,NE,45,0.0,-999.0,92,-99.99,,,0.00,Acu-Link.com,2013-03-08 11:20:00,
2013-03-08 06:35:00,28.0,25.5,30.23,NE,45,1.1,-999.0,90,-99.99,,,0.00,Acu-Link.com,2013-03-08 11:35:00,
2013-03-08 06:50:00,28.0,25.5,30.23,NE,45,1.1,-999.0,90,-99.99,,,0.00,Acu-Link.com,2013-03-08 11:50:00,
2013-03-08 07:05:00,28.2,25.4,30.23,NE,45,1.7,-999.0,89,-99.99,,,0.00,Acu-Link.com,2013-03-08 12:05:00,
2013-03-08 07:20:00,28.2,25.4,30.24,NE,45,1.7,-999.0,89,-99.99,,,0.01,Acu-Link.com,2013-03-08 12:20:00,
2013-03-08 07:35:00,30.9,26.6,30.24,NE,45,1.1,-999.0,84,-99.99,,,0.01,Acu-Link.com,2013-03-08 12:35:00,
2013-03-08 07:50:00,34.3,28.8,30.25,NE,45,0.0,-999.0,80,-99.99,,,0.01,Acu-Link.com,2013-03-08 12:50:00,
2013-03-08 08:06:00,36.5,28.3,30.25,NE,45,6.8,-999.0,72,-99.99,,,0.01,Acu-Link.com,2013-03-08 13:06:00,
2013-03-08 08:21:00,36.9,28.0,30.25,NE,45,4.7,-999.0,70,-99.99,,,0.01,Acu-Link.com,2013-03-08 13:21:00,
2013-03-08 08:36:00,37.8,28.6,30.26,East,90,6.8,-999.0,69,-99.99,,,0.01,Acu-Link.com,2013-03-08 13:36:00,
2013-03-08 08:51:00,38.3,29.0,30.26,NE,45,8.3,-999.0,69,-99.99,,,0.01,Acu-Link.com,2013-03-08 13:51:00,
2013-03-08 09:06:00,39.2,28.4,30.25,East,90,7.3,-999.0,65,-99.99,,,0.01,Acu-Link.com,2013-03-08 14:06:00,
2013-03-08 09:21:00,39.9,28.7,30.25,ENE,67,5.8,-999.0,64,-99.99,,,0.01,Acu-Link.com,2013-03-08 14:21:00,
2013-03-08 09:36:00,41.7,28.9,30.25,NNE,22,5.8,-999.0,60,-99.99,,,0.01,Acu-Link.com,2013-03-08 14:36:00,
2013-03-08 09:51:00,42.3,29.0,30.24,ESE,112,6.3,-999.0,59,-99.99,,,0.01,Acu-Link.com,2013-03-08 14:51:00,
2013-03-08 10:06:00,43.2,29.4,30.23,North,0,6.3,-999.0,58,-99.99,,,0.01,Acu-Link.com,2013-03-08 15:06:00,
2013-03-08 10:22:00,44.4,29.3,30.22,ESE,112,8.9,-999.0,55,-99.99,,,0.01,Acu-Link.com,2013-03-08 15:22:00,
2013-03-08 10:37:00,45.1,29.0,30.22,ENE,67,6.8,-999.0,53,-99.99,,,0.01,Acu-Link.com,2013-03-08 15:37:00,
2013-03-08 10:52:00,46.0,29.4,30.22,ENE,67,2.7,-999.0,52,-99.99,,,0.01,Acu-Link.com,2013-03-08 15:52:00,
2013-03-08 11:07:00,47.7,30.0,30.21,NE,45,6.3,-999.0,50,-99.99,,,0.01,Acu-Link.com,2013-03-08 16:07:00,
2013-03-08 11:22:00,47.8,29.6,30.20,NNE,22,5.3,-999.0,49,-99.99,,,0.01,Acu-Link.com,2013-03-08 16:22:00,
2013-03-08 11:37:00,49.1,30.3,30.20,ESE,112,3.7,-999.0,48,-99.99,,,0.01,Acu-Link.com,2013-03-08 16:37:00,
2013-03-08 11:52:00,49.3,27.8,30.19,NE,45,4.2,-999.0,43,-99.99,,,0.01,Acu-Link.com,2013-03-08 16:52:00,
2013-03-08 12:07:00,50.4,29.3,30.19,North,0,5.3,-999.0,44,-99.99,,,0.01,Acu-Link.com,2013-03-08 17:07:00,
2013-03-08 12:22:00,52.5,30.1,30.19,NE,45,6.8,-999.0,42,-99.99,,,0.01,Acu-Link.com,2013-03-08 17:22:00,
2013-03-08 12:38:00,54.1,29.1,30.19,East,90,3.2,-999.0,38,-99.99,,,0.01,Acu-Link.com,2013-03-08 17:38:00,
2013-03-08 12:53:00,53.6,29.9,30.18,ENE,67,4.2,-999.0,40,-99.99,,,0.01,Acu-Link.com,2013-03-08 17:53:00,
2013-03-08 13:08:00,54.0,28.3,30.17,ESE,112,2.7,-999.0,37,-99.99,,,0.01,Acu-Link.com,2013-03-08 18:08:00,
2013-03-08 13:23:00,54.5,28.8,30.16,East,90,7.3,-999.0,37,-99.99,,,0.01,Acu-Link.com,2013-03-08 18:23:00,
2013-03-08 13:38:00,55.8,30.6,30.14,NE,45,6.8,-999.0,38,-99.99,,,0.01,Acu-Link.com,2013-03-08 18:38:00,
2013-03-08 13:53:00,56.3,29.0,30.14,SSE,157,2.7,-999.0,35,-99.99,,,0.01,Acu-Link.com,2013-03-08 18:53:00,
2013-03-08 14:08:00,57.2,28.4,30.15,NE,45,2.7,-999.0,33,-99.99,,,0.01,Acu-Link.com,2013-03-08 19:08:00,
2013-03-08 14:24:00,56.7,30.1,30.15,ESE,112,7.3,-999.0,36,-99.99,,,0.01,Acu-Link.com,2013-03-08 19:24:00,
2013-03-08 14:39:00,57.6,29.4,30.15,ENE,67,6.3,-999.0,34,-99.99,,,0.01,Acu-Link.com,2013-03-08 19:39:00,
2013-03-08 14:54:00,58.3,30.8,30.15,SE,135,3.7,-999.0,35,-99.99,,,0.01,Acu-Link.com,2013-03-08 19:54:00,
2013-03-08 15:09:00,58.8,29.8,30.13,ESE,112,5.8,-999.0,33,-99.99,,,0.01,Acu-Link.com,2013-03-08 20:09:00,
2013-03-08 15:24:00,59.0,29.9,30.13,ESE,112,5.8,-999.0,33,-99.99,,,0.01,Acu-Link.com,2013-03-08 20:24:00,
2013-03-08 15:39:00,58.1,28.4,30.14,NE,45,7.3,-999.0,32,-99.99,,,0.01,Acu-Link.com,2013-03-08 20:39:00,
2013-03-08 15:54:00,58.1,29.9,30.13,East,90,4.2,-999.0,34,-99.99,,,0.01,Acu-Link.com,2013-03-08 20:54:00,
2013-03-08 16:09:00,58.5,29.5,30.13,ENE,67,5.8,-999.0,33,-99.99,,,0.01,Acu-Link.com,2013-03-08 21:09:00,
2013-03-08 16:25:00,58.8,29.0,30.13,East,90,3.7,-999.0,32,-99.99,,,0.01,Acu-Link.com,2013-03-08 21:25:00,
2013-03-08 16:40:00,57.7,28.8,30.12,NE,45,3.2,-999.0,33,-99.99,,,0.01,Acu-Link.com,2013-03-08 21:40:00,
2013-03-08 16:55:00,55.8,28.6,30.12,NE,45,4.2,-999.0,35,-99.99,,,0.01,Acu-Link.com,2013-03-08 21:55:00,
2013-03-08 17:10:00,55.0,27.9,30.13,ENE,67,4.7,-999.0,35,-99.99,,,0.01,Acu-Link.com,2013-03-08 22:10:00,
2013-03-08 17:25:00,54.5,28.8,30.14,ESE,112,1.1,-999.0,37,-99.99,,,0.01,Acu-Link.com,2013-03-08 22:25:00,
2013-03-08 17:40:00,53.8,27.5,30.13,North,0,2.7,-999.0,36,-99.99,,,0.01,Acu-Link.com,2013-03-08 22:40:00,
2013-03-08 17:55:00,52.5,27.0,30.14,ENE,67,1.7,-999.0,37,-99.99,,,0.01,Acu-Link.com,2013-03-08 22:55:00,
2013-03-08 18:10:00,52.0,27.2,30.13,NE,45,2.7,-999.0,38,-99.99,,,0.01,Acu-Link.com,2013-03-08 23:10:00,
2013-03-08 18:25:00,50.5,29.4,30.14,East,90,2.7,-999.0,44,-99.99,,,0.01,Acu-Link.com,2013-03-08 23:25:00,
2013-03-08 18:41:00,48.2,30.9,30.15,SSE,157,1.7,-999.0,51,-99.99,,,0.01,Acu-Link.com,2013-03-08 23:41:00,
2013-03-08 18:56:00,46.2,30.0,30.13,NNE,22,1.7,-999.0,53,-99.99,,,0.01,Acu-Link.com,2013-03-08 23:56:00,
2013-03-08 19:11:00,44.1,30.3,30.14,West,270,0.0,-999.0,58,-99.99,,,0.01,Acu-Link.com,2013-03-09 00:11:00,
2013-03-08 19:26:00,42.6,31.3,30.15,WNW,292,0.0,-999.0,64,-99.99,,,0.01,Acu-Link.com,2013-03-09 00:26:00,
2013-03-08 19:41:00,40.6,31.6,30.15,WNW,292,1.7,-999.0,70,-99.99,,,0.01,Acu-Link.com,2013-03-09 00:41:00,
2013-03-08 19:56:00,39.6,29.6,30.15,WNW,292,0.0,-999.0,67,-99.99,,,0.01,Acu-Link.com,2013-03-09 00:56:00,
2013-03-08 20:11:00,38.3,30.1,30.15,WNW,292,2.7,-999.0,72,-99.99,,,0.01,Acu-Link.com,2013-03-09 01:11:00,
2013-03-08 20:26:00,36.9,31.0,30.15,SSW,202,1.7,-999.0,79,-99.99,,,0.01,Acu-Link.com,2013-03-09 01:26:00,
2013-03-08 20:41:00,35.8,30.2,30.16,SSW,202,1.7,-999.0,80,-99.99,,,0.01,Acu-Link.com,2013-03-09 01:41:00,
2013-03-08 20:57:00,35.2,30.0,30.17,SSW,202,0.0,-999.0,81,-99.99,,,0.01,Acu-Link.com,2013-03-09 01:57:00,
2013-03-08 21:12:00,34.9,29.4,30.16,SSW,202,0.0,-999.0,80,-99.99,,,0.01,Acu-Link.com,2013-03-09 02:12:00,
2013-03-08 21:27:00,34.2,29.6,30.15,SSW,202,2.7,-999.0,83,-99.99,,,0.01,Acu-Link.com,2013-03-09 02:27:00,
2013-03-08 21:42:00,33.1,29.4,30.16,SSW,202,0.0,-999.0,86,-99.99,,,0.01,Acu-Link.com,2013-03-09 02:42:00,
2013-03-08 21:57:00,32.5,29.1,30.17,SSW,202,0.0,-999.0,87,-99.99,,,0.01,Acu-Link.com,2013-03-09 02:57:00,
2013-03-08 22:12:00,32.2,29.1,30.16,SSW,202,0.0,-999.0,88,-99.99,,,0.01,Acu-Link.com,2013-03-09 03:12:00,
2013-03-08 22:27:00,31.3,28.2,30.16,SSW,202,0.0,-999.0,88,-99.99,,,0.01,Acu-Link.com,2013-03-09 03:27:00,
2013-03-08 22:42:00,30.9,28.3,30.16,SSW,202,1.7,-999.0,90,-99.99,,,0.01,Acu-Link.com,2013-03-09 03:42:00,
2013-03-08 22:57:00,30.4,27.8,30.16,SSW,202,0.0,-999.0,90,-99.99,,,0.01,Acu-Link.com,2013-03-09 03:57:00,
2013-03-08 23:12:00,30.2,27.6,30.17,SSW,202,0.0,-999.0,90,-99.99,,,0.01,Acu-Link.com,2013-03-09 04:12:00,
2013-03-08 23:28:00,29.3,27.5,30.16,SSW,202,1.7,-999.0,93,-99.99,,,0.01,Acu-Link.com,2013-03-09 04:28:00,
2013-03-08 23:43:00,29.1,27.1,30.16,SSW,202,0.0,-999.0,92,-99.99,,,0.01,Acu-Link.com,2013-03-09 04:43:00,
2013-03-08 23:58:00,28.8,27.0,30.16,SSW,202,0.0,-999.0,93,-99.99,,,0.01,Acu-Link.com,2013-03-09 04:58:00,